createdAt,value
2023-11-23T00:03:43.450Z,-0.08
2023-11-23T00:08:53.197Z,-0.12
2023-11-23T00:14:03.177Z,-0.13
2023-11-23T00:19:12.756Z,-0.12
2023-11-23T00:24:22.412Z,-0.14
2023-11-23T00:29:32.435Z,-0.11
2023-11-23T00:34:41.988Z,-0.11
2023-11-23T00:39:51.746Z,-0.07
2023-11-23T00:45:01.892Z,-0.07
2023-11-23T00:50:13.139Z,-0.06
2023-11-23T00:55:23.132Z,-0.05
2023-11-23T01:00:33.496Z,-0.04
2023-11-23T01:05:43.240Z,-0.05
2023-11-23T01:10:52.907Z,-0.06
2023-11-23T01:16:03.603Z,-0.09
2023-11-23T01:21:13.416Z,-0.11
2023-11-23T01:26:23.133Z,-0.13
2023-11-23T01:31:32.671Z,-0.14
2023-11-23T01:36:42.184Z,-0.16
2023-11-23T01:41:52.126Z,-0.17
2023-11-23T01:47:01.736Z,-0.18
2023-11-23T01:52:12.369Z,-0.23
2023-11-23T01:57:22.936Z,-0.37
2023-11-23T02:02:33.308Z,-0.61
2023-11-23T02:07:43.060Z,-0.75
2023-11-23T02:12:54.530Z,-0.93
2023-11-23T02:18:09.071Z,-1.02
2023-11-23T02:23:18.900Z,-1.11
2023-11-23T02:28:28.870Z,-1.14
2023-11-23T02:33:39.446Z,-1.17
2023-11-23T02:38:49.179Z,-1.18
2023-11-23T02:43:58.898Z,-1.21
2023-11-23T02:49:08.786Z,-1.23
2023-11-23T02:54:18.419Z,-1.22
2023-11-23T02:59:28.441Z,-1.22
2023-11-23T03:04:38.956Z,-1.25
2023-11-23T03:09:48.765Z,-1.25
2023-11-23T03:14:58.706Z,-1.23
2023-11-23T03:20:11.740Z,-1.17
2023-11-23T03:25:21.966Z,-1.11
2023-11-23T03:30:31.688Z,-1.06
2023-11-23T03:35:41.696Z,-0.99
2023-11-23T03:40:51.574Z,-0.89
2023-11-23T03:46:01.277Z,-0.81
2023-11-23T03:51:15.908Z,-0.71
2023-11-23T03:56:25.771Z,-0.64
2023-11-23T04:01:35.894Z,-0.58
2023-11-23T04:06:47.042Z,-0.51
2023-11-23T04:11:56.884Z,-0.44
2023-11-23T04:17:06.803Z,-0.42
2023-11-23T04:22:16.914Z,-0.36
2023-11-23T04:27:26.846Z,-0.29
2023-11-23T04:32:37.729Z,-0.23
2023-11-23T04:37:47.893Z,-0.16
2023-11-23T04:42:58.242Z,-0.11
2023-11-23T04:48:08.619Z,-0.07
2023-11-23T04:53:19.279Z,-0.02
2023-11-23T04:58:28.941Z,0.02
2023-11-23T05:03:38.916Z,0.09
2023-11-23T05:08:49.022Z,0.14
2023-11-23T05:14:07.622Z,0.17
2023-11-23T05:19:31.382Z,0.18
2023-11-23T05:24:47.927Z,0.22
2023-11-23T05:29:57.784Z,0.26
2023-11-23T05:35:09.496Z,0.28
2023-11-23T05:40:19.952Z,0.31
2023-11-23T05:45:29.702Z,0.34
2023-11-23T05:50:39.268Z,0.39
2023-11-23T05:55:48.791Z,0.45
2023-11-23T06:01:07.198Z,0.51
2023-11-23T06:06:28.390Z,0.57
2023-11-23T06:11:38.661Z,0.62
2023-11-23T06:16:48.384Z,0.66
2023-11-23T06:21:57.915Z,0.72
2023-11-23T06:27:08.270Z,0.77
2023-11-23T06:32:18.591Z,0.82
2023-11-23T06:37:28.332Z,0.87
2023-11-23T06:42:39.276Z,0.91
2023-11-23T06:47:49.384Z,0.95
2023-11-23T06:52:59.267Z,1.03
2023-11-23T06:58:11.461Z,1.08
2023-11-23T07:03:23.050Z,1.15
2023-11-23T07:08:33.144Z,1.19
2023-11-23T07:13:42.881Z,1.23
2023-11-23T07:18:53.272Z,1.27
2023-11-23T07:24:03.599Z,1.29
2023-11-23T07:29:13.555Z,1.32
2023-11-23T07:34:23.652Z,1.34
2023-11-23T07:39:33.370Z,1.38
2023-11-23T07:44:45.240Z,1.40
2023-11-23T07:49:56.991Z,1.42
2023-11-23T07:55:07.455Z,1.44
2023-11-23T08:00:21.411Z,1.48
2023-11-23T08:05:31.647Z,1.52
2023-11-23T08:10:41.382Z,1.55
2023-11-23T08:15:51.206Z,1.59
2023-11-23T08:21:01.161Z,1.64
2023-11-23T08:26:12.397Z,1.65
2023-11-23T08:31:25.096Z,1.70
2023-11-23T08:36:34.934Z,1.75
2023-11-23T08:41:44.815Z,1.80
2023-11-23T08:46:54.766Z,1.88
2023-11-23T08:52:04.380Z,1.93
2023-11-23T08:57:14.539Z,1.98
2023-11-23T09:02:24.425Z,2.03
2023-11-23T09:07:34.388Z,2.07
2023-11-23T09:12:44.066Z,2.13
2023-11-23T09:17:53.884Z,2.19
2023-11-23T09:23:03.938Z,2.24
2023-11-23T09:28:13.586Z,2.28
2023-11-23T09:33:24.706Z,2.34
2023-11-23T09:38:36.696Z,2.41
2023-11-23T09:43:49.808Z,2.46
2023-11-23T09:49:01.055Z,2.53
2023-11-23T09:54:15.831Z,2.59
2023-11-23T09:59:26.322Z,2.67
2023-11-23T10:04:36.349Z,2.75
2023-11-23T10:09:47.981Z,2.84
2023-11-23T10:15:01.437Z,2.90
2023-11-23T10:20:16.803Z,2.98
2023-11-23T10:25:33.700Z,3.07
2023-11-23T10:30:44.328Z,3.15
2023-11-23T10:35:56.545Z,3.22
2023-11-23T10:41:07.799Z,3.33
2023-11-23T10:46:21.542Z,3.40
2023-11-23T10:51:36.062Z,3.47
2023-11-23T10:56:46.913Z,3.52
2023-11-23T11:02:00.962Z,3.58
2023-11-23T11:07:14.135Z,3.67
2023-11-23T11:12:24.034Z,3.77
2023-11-23T11:17:43.427Z,3.89
2023-11-23T11:23:01.978Z,4.01
2023-11-23T11:28:19.201Z,4.13
2023-11-23T11:33:31.574Z,4.24
2023-11-23T11:38:42.375Z,4.36
2023-11-23T11:43:53.585Z,4.47
2023-11-23T11:49:03.428Z,4.59
2023-11-23T11:54:13.579Z,4.68
2023-11-23T11:59:26.856Z,4.82
2023-11-23T12:04:40.887Z,4.97
2023-11-23T12:10:00.848Z,5.12
2023-11-23T12:15:16.620Z,5.24
2023-11-23T12:20:36.932Z,5.36
2023-11-23T12:25:49.665Z,5.50
2023-11-23T12:31:00.072Z,5.62
2023-11-23T12:36:13.881Z,5.73
2023-11-23T12:41:24.179Z,5.81
2023-11-23T12:46:35.701Z,5.86
2023-11-23T12:51:46.055Z,5.95
2023-11-23T12:56:57.003Z,6.01
2023-11-23T13:02:07.011Z,6.05
2023-11-23T13:07:17.253Z,6.10
2023-11-23T13:12:28.318Z,6.16
2023-11-23T13:17:38.659Z,6.21
2023-11-23T13:22:48.458Z,6.26
2023-11-23T13:27:59.663Z,6.32
2023-11-23T13:33:17.113Z,6.37
2023-11-23T13:38:27.141Z,6.46
2023-11-23T13:43:37.247Z,6.55
2023-11-23T13:48:47.610Z,6.61
2023-11-23T13:53:57.305Z,6.71
2023-11-23T13:59:08.222Z,6.81
2023-11-23T14:04:18.226Z,6.94
2023-11-23T14:09:32.262Z,7.04
2023-11-23T14:14:43.377Z,7.11
2023-11-23T14:19:54.004Z,7.21
2023-11-23T14:25:03.654Z,7.26
2023-11-23T14:30:18.620Z,7.30
2023-11-23T14:35:32.915Z,7.27
2023-11-23T14:40:42.708Z,7.25
2023-11-23T14:45:52.525Z,7.28
2023-11-23T14:51:02.363Z,7.28
2023-11-23T14:56:13.181Z,7.26
2023-11-23T15:01:24.289Z,7.24
2023-11-23T15:06:34.529Z,7.25
2023-11-23T15:11:45.722Z,7.26
2023-11-23T15:16:55.661Z,7.24
2023-11-23T15:22:07.576Z,7.17
2023-11-23T15:27:17.564Z,7.12
2023-11-23T15:32:28.960Z,7.07
2023-11-23T15:37:38.969Z,7.06
2023-11-23T15:42:50.088Z,7.16
2023-11-23T15:47:59.952Z,7.30
2023-11-23T15:53:10.567Z,7.37
2023-11-23T15:58:20.307Z,7.47
2023-11-23T16:03:30.548Z,7.51
2023-11-23T16:08:41.521Z,7.50
2023-11-23T16:13:51.955Z,7.47
2023-11-23T16:19:02.575Z,7.46
2023-11-23T16:24:15.461Z,7.47
2023-11-23T16:29:25.120Z,7.47
2023-11-23T16:34:35.396Z,7.44
2023-11-23T16:39:45.718Z,7.40
2023-11-23T16:44:55.705Z,7.37
2023-11-23T16:50:06.389Z,7.34
2023-11-23T16:55:16.576Z,7.36
2023-11-23T17:00:28.008Z,7.37
2023-11-23T17:05:37.875Z,7.37
2023-11-23T17:10:47.717Z,7.37
2023-11-23T17:15:57.653Z,7.38
2023-11-23T17:21:08.077Z,7.37
2023-11-23T17:26:20.692Z,7.39
2023-11-23T17:31:30.716Z,7.39
2023-11-23T17:36:40.778Z,7.35
2023-11-23T17:41:52.278Z,7.33
2023-11-23T17:47:01.955Z,7.31
2023-11-23T17:52:12.126Z,7.29
2023-11-23T17:57:22.049Z,7.24
2023-11-23T18:02:31.748Z,7.22
2023-11-23T18:07:43.050Z,7.24
2023-11-23T18:12:52.879Z,7.30
2023-11-23T18:18:07.763Z,7.29
2023-11-23T18:23:22.485Z,7.31
2023-11-23T18:28:32.401Z,7.32
2023-11-23T18:33:43.836Z,7.26
2023-11-23T18:38:54.033Z,7.20
2023-11-23T18:44:04.305Z,7.17
2023-11-23T18:49:14.629Z,7.12
2023-11-23T18:54:24.554Z,7.06
2023-11-23T18:59:34.475Z,7.02
2023-11-23T19:04:45.098Z,7.01
2023-11-23T19:09:54.745Z,7.00
2023-11-23T19:15:04.816Z,6.94
2023-11-23T19:20:17.094Z,6.87
2023-11-23T19:25:31.342Z,6.80
2023-11-23T19:30:44.441Z,6.76
2023-11-23T19:35:56.549Z,6.68
2023-11-23T19:41:11.720Z,6.60
2023-11-23T19:46:24.764Z,6.57
2023-11-23T19:51:37.820Z,6.51
2023-11-23T19:56:48.408Z,6.48
2023-11-23T20:02:01.208Z,6.50
2023-11-23T20:07:11.605Z,6.51
2023-11-23T20:12:21.483Z,6.45
2023-11-23T20:17:31.609Z,6.40
2023-11-23T20:22:41.376Z,6.41
2023-11-23T20:27:51.899Z,6.44
2023-11-23T20:33:01.579Z,6.45
2023-11-23T20:38:11.402Z,6.44
2023-11-23T20:43:25.387Z,6.41
2023-11-23T20:48:37.567Z,6.37
2023-11-23T20:53:47.256Z,6.39
2023-11-23T20:58:59.904Z,6.38
2023-11-23T21:04:13.924Z,6.31
2023-11-23T21:09:26.631Z,6.30
2023-11-23T21:14:36.488Z,6.31
2023-11-23T21:19:46.509Z,6.35
2023-11-23T21:24:56.331Z,6.34
2023-11-23T21:30:06.888Z,6.31
2023-11-23T21:35:17.202Z,6.33
2023-11-23T21:40:27.462Z,6.26
2023-11-23T21:45:38.624Z,6.21
2023-11-23T21:50:48.494Z,6.20
2023-11-23T21:55:58.523Z,6.19
2023-11-23T22:01:08.955Z,6.14
2023-11-23T22:06:19.004Z,6.07
2023-11-23T22:11:29.007Z,5.98
2023-11-23T22:16:42.631Z,5.93
2023-11-23T22:21:54.427Z,5.86
2023-11-23T22:27:05.365Z,5.79
2023-11-23T22:32:19.055Z,5.80
2023-11-23T22:37:31.620Z,5.87
2023-11-23T22:42:43.057Z,5.93
2023-11-23T22:47:52.767Z,5.34
2023-11-23T22:53:02.563Z,4.65
2023-11-23T22:58:12.360Z,4.39
2023-11-23T23:03:23.149Z,4.39
2023-11-23T23:08:32.969Z,4.49
2023-11-23T23:13:44.205Z,4.57
2023-11-23T23:18:54.398Z,4.61
2023-11-23T23:24:04.153Z,4.61
2023-11-23T23:29:14.992Z,4.58
2023-11-23T23:34:24.671Z,4.57
2023-11-23T23:39:34.739Z,4.66
2023-11-23T23:44:46.368Z,4.79
2023-11-23T23:49:56.583Z,4.82
2023-11-23T23:55:07.782Z,4.81
